createdAt,value
2022-12-01T00:00:31.711Z,13.02
2022-12-01T00:03:01.656Z,13.18
2022-12-01T00:05:31.962Z,14.05
2022-12-01T00:08:05.156Z,14.80
2022-12-01T00:10:33.632Z,12.93
2022-12-01T00:13:04.938Z,14.02
2022-12-01T00:15:37.235Z,14.77
2022-12-01T00:18:07.819Z,14.30
2022-12-01T00:20:38.338Z,14.93
2022-12-01T00:23:11.615Z,16.25
2022-12-01T00:25:41.187Z,15.60
2022-12-01T00:28:11.231Z,15.35
2022-12-01T00:30:40.789Z,17.90
2022-12-01T00:33:10.346Z,17.95
2022-12-01T00:35:40.020Z,17.70
2022-12-01T00:38:12.198Z,18.90
2022-12-01T00:40:41.751Z,18.17
2022-12-01T00:43:11.461Z,20.00
2022-12-01T00:45:41.144Z,20.33
2022-12-01T00:48:10.812Z,19.73
2022-12-01T00:50:40.486Z,22.05
2022-12-01T00:53:12.710Z,22.75
2022-12-01T00:55:42.898Z,20.33
2022-12-01T00:58:12.501Z,20.08
2022-12-01T01:00:43.043Z,20.35
2022-12-01T01:03:13.241Z,19.83
2022-12-01T01:05:44.160Z,20.20
2022-12-01T01:08:17.751Z,19.73
2022-12-01T01:10:48.719Z,19.63
2022-12-01T01:13:18.876Z,19.80
2022-12-01T01:15:48.667Z,19.80
2022-12-01T01:18:18.197Z,19.63
2022-12-01T01:20:47.927Z,19.65
2022-12-01T01:23:20.111Z,17.67
2022-12-01T01:25:49.692Z,19.40
2022-12-01T01:28:19.816Z,18.38
2022-12-01T01:30:49.500Z,19.23
2022-12-01T01:33:19.112Z,19.27
2022-12-01T01:35:48.683Z,18.20
2022-12-01T01:38:21.049Z,18.73
2022-12-01T01:40:50.627Z,18.92
2022-12-01T01:43:39.246Z,18.30
2022-12-01T01:46:09.363Z,19.00
2022-12-01T01:48:39.853Z,19.15
2022-12-01T01:51:10.298Z,19.02
2022-12-01T01:53:42.728Z,19.75
2022-12-01T01:56:12.407Z,20.65
2022-12-01T01:58:42.343Z,18.95
2022-12-01T02:01:11.976Z,21.35
2022-12-01T02:03:43.082Z,21.42
2022-12-01T02:06:16.009Z,21.10
2022-12-01T02:08:48.684Z,21.77
2022-12-01T02:11:52.016Z,23.75
2022-12-01T02:14:36.638Z,22.48
2022-12-01T02:17:13.761Z,21.65
2022-12-01T02:20:06.283Z,22.38
2022-12-01T02:22:52.185Z,23.00
2022-12-01T02:25:29.260Z,23.10
2022-12-01T02:28:16.442Z,21.80
2022-12-01T02:30:51.688Z,24.17
2022-12-01T02:33:23.933Z,22.67
2022-12-01T02:35:58.942Z,24.05
2022-12-01T02:38:32.797Z,25.88
2022-12-01T02:41:10.450Z,24.45
2022-12-01T02:43:45.357Z,24.80
2022-12-01T02:46:20.996Z,22.45
2022-12-01T02:48:52.595Z,24.85
2022-12-01T02:51:23.974Z,25.45
2022-12-01T02:53:53.641Z,26.70
2022-12-01T02:56:24.287Z,26.27
2022-12-01T02:58:53.980Z,27.67
2022-12-01T03:01:35.484Z,27.15
2022-12-01T03:04:22.497Z,26.85
2022-12-01T03:06:58.690Z,28.33
2022-12-01T03:09:33.564Z,27.67
2022-12-01T03:12:12.495Z,25.08
2022-12-01T03:14:45.218Z,25.80
2022-12-01T03:17:19.880Z,23.33
2022-12-01T03:19:52.313Z,24.50
2022-12-01T03:22:25.957Z,25.60
2022-12-01T03:24:57.721Z,25.80
2022-12-01T03:27:30.571Z,24.73
2022-12-01T03:30:02.324Z,23.40
2022-12-01T03:32:38.598Z,23.67
2022-12-01T03:35:11.535Z,23.02
2022-12-01T03:37:44.250Z,26.17
2022-12-01T03:40:17.826Z,22.95
2022-12-01T03:42:49.536Z,25.42
2022-12-01T03:45:21.414Z,24.88
2022-12-01T03:47:53.650Z,24.45
2022-12-01T03:50:23.525Z,27.65
2022-12-01T03:52:59.383Z,28.33
2022-12-01T03:55:30.925Z,27.10
2022-12-01T03:58:04.390Z,26.52
2022-12-01T04:00:34.137Z,26.02
2022-12-01T04:03:07.172Z,26.98
2022-12-01T04:05:37.876Z,27.10
2022-12-01T04:08:08.153Z,27.52
2022-12-01T04:10:37.756Z,26.48
2022-12-01T04:13:04.733Z,26.92
2022-12-01T04:15:34.390Z,27.58
2022-12-01T04:18:06.960Z,25.05
2022-12-01T04:20:36.574Z,26.63
2022-12-01T04:23:06.185Z,25.73
2022-12-01T04:25:35.721Z,27.05
2022-12-01T04:28:05.552Z,28.10
2022-12-01T04:30:35.096Z,33.42
2022-12-01T04:33:07.352Z,24.73
2022-12-01T04:35:36.908Z,25.92
2022-12-01T04:38:06.773Z,26.55
2022-12-01T04:40:36.327Z,25.98
2022-12-01T04:43:05.906Z,25.60
2022-12-01T04:45:35.484Z,25.45
2022-12-01T04:48:07.835Z,25.45
2022-12-01T04:50:37.424Z,26.27
2022-12-01T04:53:07.179Z,25.45
2022-12-01T04:55:39.811Z,25.38
2022-12-01T04:58:09.689Z,26.08
2022-12-01T05:00:40.050Z,25.02
2022-12-01T05:03:15.214Z,23.35
2022-12-01T05:05:45.072Z,28.27
2022-12-01T05:08:14.723Z,27.50
2022-12-01T05:10:44.276Z,25.17
2022-12-01T05:13:13.847Z,25.10
2022-12-01T05:15:43.421Z,23.80
2022-12-01T05:18:15.665Z,24.00
2022-12-01T05:20:57.838Z,23.15
2022-12-01T05:23:27.536Z,23.15
2022-12-01T05:25:57.881Z,23.30
2022-12-01T05:28:28.920Z,22.63
2022-12-01T05:30:59.077Z,21.98
2022-12-01T05:33:31.671Z,23.65
2022-12-01T05:36:01.348Z,23.33
2022-12-01T05:38:30.912Z,23.98
2022-12-01T05:41:00.798Z,23.60
2022-12-01T05:43:30.337Z,26.45
2022-12-01T05:46:00.126Z,23.48
2022-12-01T05:48:32.417Z,23.77
2022-12-01T05:51:01.996Z,23.08
2022-12-01T05:53:31.544Z,22.65
2022-12-01T05:56:01.115Z,25.45
2022-12-01T05:58:30.666Z,24.75
2022-12-01T06:01:00.340Z,23.65
2022-12-01T06:03:32.548Z,22.67
2022-12-01T06:06:02.164Z,24.13
2022-12-01T06:08:31.799Z,24.30
2022-12-01T06:11:01.426Z,22.42
2022-12-01T06:13:30.990Z,21.45
2022-12-01T06:16:02.666Z,21.88
2022-12-01T06:18:37.010Z,21.33
2022-12-01T06:21:07.734Z,21.88
2022-12-01T06:23:37.566Z,21.25
2022-12-01T06:26:07.390Z,21.08
2022-12-01T06:28:37.024Z,18.85
2022-12-01T06:31:06.722Z,20.05
2022-12-01T06:33:38.904Z,20.85
2022-12-01T06:36:10.500Z,20.50
2022-12-01T06:38:40.176Z,21.23
2022-12-01T06:41:09.963Z,20.83
2022-12-01T06:43:39.958Z,20.25
2022-12-01T06:46:09.609Z,20.90
2022-12-01T06:48:41.814Z,22.27
2022-12-01T06:51:11.679Z,21.08
2022-12-01T06:53:41.234Z,20.77
2022-12-01T06:56:10.804Z,19.98
2022-12-01T06:58:40.593Z,20.35
2022-12-01T07:01:11.299Z,20.50
2022-12-01T07:03:43.459Z,19.98
2022-12-01T07:06:13.004Z,20.52
2022-12-01T07:08:42.662Z,19.92
2022-12-01T07:11:15.194Z,20.23
2022-12-01T07:13:45.753Z,20.60
2022-12-01T07:16:15.754Z,16.27
2022-12-01T07:18:47.905Z,19.88
2022-12-01T07:21:18.010Z,19.67
2022-12-01T07:23:47.584Z,17.83
2022-12-01T07:26:19.585Z,18.25
2022-12-01T07:28:49.141Z,18.85
2022-12-01T07:31:20.559Z,18.63
2022-12-01T07:33:52.762Z,19.73
2022-12-01T07:36:22.357Z,18.55
2022-12-01T07:38:51.886Z,19.65
2022-12-01T07:41:22.230Z,21.27
2022-12-01T07:43:53.268Z,15.63
2022-12-01T07:46:24.867Z,19.65
2022-12-01T07:48:57.983Z,19.10
2022-12-01T07:51:28.069Z,20.35
2022-12-01T07:53:57.684Z,18.83
2022-12-01T07:56:27.853Z,18.40
2022-12-01T07:58:57.459Z,20.05
2022-12-01T08:01:28.184Z,17.83
2022-12-01T08:04:01.331Z,17.17
2022-12-01T08:06:30.908Z,18.00
2022-12-01T08:09:00.443Z,16.98
2022-12-01T08:11:31.902Z,16.42
2022-12-01T08:14:01.460Z,17.88
2022-12-01T08:16:31.440Z,17.02
2022-12-01T08:19:03.614Z,17.83
2022-12-01T08:21:33.164Z,18.05
2022-12-01T08:24:02.738Z,18.17
2022-12-01T08:26:32.507Z,18.00
2022-12-01T08:29:02.083Z,16.98
2022-12-01T08:31:35.713Z,16.27
2022-12-01T08:34:08.568Z,15.85
2022-12-01T08:36:38.362Z,14.90
2022-12-01T08:39:08.036Z,15.60
2022-12-01T08:41:37.720Z,15.00
2022-12-01T08:44:07.645Z,15.73
2022-12-01T08:46:38.159Z,14.93
2022-12-01T08:49:10.439Z,15.45
2022-12-01T08:51:40.083Z,15.35
2022-12-01T08:54:09.727Z,15.63
2022-12-01T08:56:41.065Z,15.73
2022-12-01T08:59:11.384Z,15.68
2022-12-01T09:01:52.058Z,16.95
2022-12-01T09:04:26.090Z,15.40
2022-12-01T09:06:56.911Z,16.25
2022-12-01T09:09:28.422Z,17.40
2022-12-01T09:11:58.696Z,16.00
2022-12-01T09:14:28.271Z,16.08
2022-12-01T09:16:57.846Z,16.58
2022-12-01T09:19:30.751Z,17.80
2022-12-01T09:22:00.774Z,15.68
2022-12-01T09:24:31.072Z,17.08
2022-12-01T09:27:03.401Z,16.48
2022-12-01T09:29:33.598Z,17.98
2022-12-01T09:32:03.532Z,18.15
2022-12-01T09:34:36.056Z,17.92
2022-12-01T09:37:06.909Z,18.52
2022-12-01T09:39:36.539Z,18.45
2022-12-01T09:42:09.621Z,18.77
2022-12-01T09:44:42.817Z,18.20
2022-12-01T09:47:19.281Z,18.40
2022-12-01T09:49:55.488Z,18.10
2022-12-01T09:52:27.004Z,19.25
2022-12-01T09:54:57.807Z,18.90
2022-12-01T09:57:32.970Z,18.40
2022-12-01T10:00:06.136Z,19.15
2022-12-01T10:02:43.896Z,16.70
2022-12-01T10:05:19.508Z,18.55
2022-12-01T10:07:51.670Z,18.08
2022-12-01T10:10:26.538Z,18.00
2022-12-01T10:12:56.205Z,17.00
2022-12-01T10:15:35.162Z,14.60
2022-12-01T10:18:20.691Z,16.23
2022-12-01T10:21:00.488Z,16.83
2022-12-01T10:23:50.383Z,16.73
2022-12-01T10:26:26.813Z,15.70
2022-12-01T10:29:02.874Z,15.50
2022-12-01T10:31:37.672Z,16.17
2022-12-01T10:34:10.382Z,16.85
2022-12-01T10:36:42.538Z,15.45
2022-12-01T10:39:20.001Z,15.88
2022-12-01T10:41:50.644Z,15.93
2022-12-01T10:44:21.419Z,15.13
2022-12-01T10:46:53.552Z,15.95
2022-12-01T10:49:23.509Z,15.75
2022-12-01T10:52:00.042Z,13.98
2022-12-01T10:54:35.765Z,14.80
2022-12-01T10:57:06.110Z,14.23
2022-12-01T10:59:38.926Z,13.20
2022-12-01T11:02:17.209Z,13.00
2022-12-01T11:04:49.312Z,12.88
2022-12-01T11:07:23.562Z,12.55
2022-12-01T11:10:05.244Z,14.48
2022-12-01T11:12:35.501Z,13.85
2022-12-01T11:15:05.340Z,13.95
2022-12-01T11:17:44.772Z,14.90
2022-12-01T11:20:32.695Z,15.82
2022-12-01T11:23:29.873Z,15.32
2022-12-01T11:26:06.516Z,14.20
2022-12-01T11:28:36.996Z,15.25
2022-12-01T11:31:08.503Z,14.93
2022-12-01T11:33:46.087Z,16.33
2022-12-01T11:36:23.385Z,15.95
2022-12-01T11:38:58.662Z,15.60
2022-12-01T11:41:32.670Z,15.50
2022-12-01T11:44:12.832Z,15.55
2022-12-01T11:46:55.730Z,15.93
2022-12-01T11:49:47.087Z,15.10
2022-12-01T11:52:23.483Z,16.77
2022-12-01T11:55:09.765Z,16.77
2022-12-01T11:57:41.848Z,17.25
2022-12-01T12:00:17.157Z,17.08
2022-12-01T12:02:57.514Z,17.50
2022-12-01T12:05:52.671Z,19.65
2022-12-01T12:08:30.569Z,20.25
2022-12-01T12:11:21.507Z,20.95
2022-12-01T12:14:19.906Z,22.88
2022-12-01T12:17:03.432Z,25.08
2022-12-01T12:20:07.156Z,24.38
2022-12-01T12:22:43.542Z,25.23
2022-12-01T12:25:25.641Z,26.30
2022-12-01T12:28:07.675Z,26.20
2022-12-01T12:30:44.970Z,25.85
2022-12-01T12:33:39.045Z,25.05
2022-12-01T12:36:14.256Z,25.70
2022-12-01T12:38:54.664Z,26.48
2022-12-01T12:41:30.282Z,26.38
2022-12-01T12:44:12.760Z,24.98
2022-12-01T12:46:50.871Z,26.02
2022-12-01T12:49:30.240Z,27.10
2022-12-01T12:52:08.284Z,25.48
2022-12-01T12:54:44.774Z,27.35
2022-12-01T12:57:22.449Z,27.65
2022-12-01T12:59:58.669Z,26.38
2022-12-01T13:02:32.351Z,25.52
2022-12-01T13:05:06.216Z,27.13
2022-12-01T13:07:40.783Z,27.38
2022-12-01T13:10:17.669Z,25.55
2022-12-01T13:12:56.193Z,26.40
2022-12-01T13:15:30.349Z,27.45
2022-12-01T13:18:03.931Z,27.83
2022-12-01T13:20:34.797Z,26.30
2022-12-01T13:23:05.099Z,27.05
2022-12-01T13:25:38.834Z,27.33
2022-12-01T13:28:15.730Z,26.48
2022-12-01T13:31:01.153Z,26.27
2022-12-01T13:33:31.007Z,26.33
2022-12-01T13:36:38.201Z,25.67
2022-12-01T13:38:59.084Z,25.33
2022-12-01T13:41:31.438Z,25.40
2022-12-01T13:44:03.520Z,23.70
2022-12-01T13:46:53.729Z,24.65
2022-12-01T13:49:40.753Z,25.48
2022-12-01T13:52:28.728Z,26.30
2022-12-01T13:55:27.235Z,24.98
2022-12-01T13:58:24.403Z,25.20
2022-12-01T14:00:54.203Z,25.88
2022-12-01T14:03:43.499Z,25.80
2022-12-01T14:06:24.496Z,28.08
2022-12-01T14:08:54.997Z,27.65
2022-12-01T14:11:26.585Z,29.70
2022-12-01T14:13:59.252Z,29.13
2022-12-01T14:16:48.249Z,29.85
2022-12-01T14:19:35.279Z,30.95
2022-12-01T14:22:05.717Z,29.33
2022-12-01T14:24:37.970Z,29.95
2022-12-01T14:27:08.285Z,28.35
2022-12-01T14:29:38.849Z,29.98
2022-12-01T14:32:23.957Z,28.40
2022-12-01T14:34:58.363Z,28.77
2022-12-01T14:37:32.773Z,29.77
2022-12-01T14:40:08.984Z,29.63
2022-12-01T14:42:53.004Z,29.85
2022-12-01T14:45:25.408Z,29.02
2022-12-01T14:48:00.397Z,30.33
2022-12-01T14:50:45.037Z,29.77
2022-12-01T14:53:25.058Z,29.85
2022-12-01T14:55:57.485Z,30.17
2022-12-01T14:58:29.338Z,31.45
2022-12-01T15:01:06.894Z,31.20
2022-12-01T15:03:39.460Z,31.67
2022-12-01T15:06:12.357Z,30.45
2022-12-01T15:08:53.128Z,30.42
2022-12-01T15:11:33.244Z,31.05
2022-12-01T15:14:02.830Z,31.35
2022-12-01T15:16:33.156Z,31.98
2022-12-01T15:19:02.966Z,30.58
2022-12-01T15:21:35.356Z,31.70
2022-12-01T15:24:06.728Z,31.27
2022-12-01T15:26:48.871Z,29.02
2022-12-01T15:29:20.798Z,32.22
2022-12-01T15:31:52.126Z,32.05
2022-12-01T15:34:24.100Z,30.50
2022-12-01T15:36:57.129Z,29.95
2022-12-01T15:39:32.472Z,31.20
2022-12-01T15:42:02.517Z,31.42
2022-12-01T15:44:34.571Z,29.20
2022-12-01T15:47:43.476Z,32.10
2022-12-01T15:50:33.583Z,32.58
2022-12-01T15:53:07.372Z,30.23
2022-12-01T15:55:39.486Z,30.92
2022-12-01T15:58:10.262Z,31.75
2022-12-01T16:00:40.410Z,32.78
2022-12-01T16:03:16.321Z,32.50
2022-12-01T16:05:47.089Z,32.33
2022-12-01T16:08:21.997Z,34.05
2022-12-01T16:11:12.774Z,31.27
2022-12-01T16:13:46.883Z,34.20
2022-12-01T16:16:38.705Z,33.60
2022-12-01T16:19:26.450Z,31.80
2022-12-01T16:21:58.688Z,32.28
2022-12-01T16:24:33.339Z,31.95
2022-12-01T16:27:05.154Z,32.50
2022-12-01T16:29:38.268Z,31.42
2022-12-01T16:32:22.253Z,29.95
2022-12-01T16:34:53.402Z,32.35
2022-12-01T16:37:24.240Z,33.30
2022-12-01T16:39:56.390Z,31.25
2022-12-01T16:42:26.000Z,32.08
2022-12-01T16:44:55.590Z,32.38
2022-12-01T16:47:26.826Z,30.88
2022-12-01T16:49:56.456Z,31.40
2022-12-01T16:55:27.355Z,31.45
2022-12-01T16:57:58.060Z,31.25
2022-12-01T17:00:29.430Z,31.85
2022-12-01T17:02:59.704Z,35.22
2022-12-01T17:05:29.373Z,32.38
2022-12-01T17:07:59.027Z,32.60
2022-12-01T17:10:31.251Z,32.60
2022-12-01T17:13:00.851Z,30.75
2022-12-01T17:15:30.508Z,31.77
2022-12-01T17:18:00.160Z,31.58
2022-12-01T17:20:29.771Z,31.55
2022-12-01T17:22:59.776Z,32.15
2022-12-01T17:25:31.945Z,30.85
2022-12-01T17:28:01.744Z,31.00
2022-12-01T17:30:31.334Z,30.02
2022-12-01T17:33:01.153Z,31.15
2022-12-01T17:35:30.837Z,31.13
2022-12-01T17:38:00.440Z,31.23
2022-12-01T17:40:32.608Z,30.83
2022-12-01T17:43:03.642Z,32.63
2022-12-01T17:45:33.898Z,31.77
2022-12-01T17:48:03.450Z,29.10
2022-12-01T17:50:33.254Z,35.33
2022-12-01T17:53:02.970Z,32.53
2022-12-01T17:55:35.149Z,32.50
2022-12-01T17:58:04.706Z,32.50
2022-12-01T18:00:34.423Z,31.02
2022-12-01T18:03:04.083Z,31.27
2022-12-01T18:05:33.787Z,33.85
2022-12-01T18:08:03.551Z,32.72
2022-12-01T18:10:35.826Z,30.98
2022-12-01T18:13:05.382Z,31.98
2022-12-01T18:15:37.352Z,33.08
2022-12-01T18:18:07.111Z,32.45
2022-12-01T18:20:37.007Z,27.02
2022-12-01T18:23:06.568Z,27.70
2022-12-01T18:25:42.676Z,30.55
2022-12-01T18:28:12.280Z,27.83
2022-12-01T18:30:41.833Z,28.90
2022-12-01T18:33:13.203Z,30.98
2022-12-01T18:35:46.323Z,30.00
2022-12-01T18:38:16.108Z,26.67
2022-12-01T18:40:48.252Z,28.25
2022-12-01T18:43:17.920Z,27.02
2022-12-01T18:45:47.476Z,28.98
2022-12-01T18:48:17.140Z,25.42
2022-12-01T18:50:46.732Z,25.85
2022-12-01T18:53:16.304Z,26.88
2022-12-01T18:55:48.472Z,19.92
2022-12-01T18:58:18.865Z,25.27
2022-12-01T19:00:48.537Z,25.90
2022-12-01T19:03:18.188Z,28.80
2022-12-01T19:05:47.779Z,27.27
2022-12-01T19:08:17.424Z,27.90
2022-12-01T19:11:00.900Z,27.45
2022-12-01T19:13:30.702Z,27.23
2022-12-01T19:16:00.443Z,27.40
2022-12-01T19:18:30.310Z,27.77
2022-12-01T19:21:03.833Z,26.73
2022-12-01T19:23:34.297Z,27.88
2022-12-01T19:26:08.810Z,29.05
2022-12-01T19:28:40.386Z,23.02
2022-12-01T19:31:11.181Z,24.63
2022-12-01T19:33:41.059Z,25.35
2022-12-01T19:36:13.182Z,24.67
2022-12-01T19:38:44.554Z,25.55
2022-12-01T19:41:20.324Z,24.90
2022-12-01T19:43:50.060Z,23.20
2022-12-01T19:46:22.394Z,21.60
2022-12-01T19:48:56.468Z,22.42
2022-12-01T19:51:27.350Z,29.63
2022-12-01T19:53:57.779Z,21.13
2022-12-01T19:56:31.515Z,21.45
2022-12-01T19:59:01.327Z,21.05
2022-12-01T20:01:31.028Z,14.93
2022-12-01T20:04:00.634Z,19.73
2022-12-01T20:06:32.376Z,17.13
2022-12-01T20:09:03.271Z,16.50
2022-12-01T20:11:35.671Z,16.13
2022-12-01T20:14:07.483Z,16.70
2022-12-01T20:16:37.157Z,15.85
2022-12-01T20:19:08.300Z,15.52
2022-12-01T20:21:42.150Z,14.88
2022-12-01T20:24:15.021Z,15.93
2022-12-01T20:26:49.234Z,17.55
2022-12-01T20:31:50.635Z,16.90
2022-12-01T20:34:22.841Z,15.73
2022-12-01T20:36:52.426Z,16.90
2022-12-01T20:39:22.428Z,13.05
2022-12-01T20:41:54.560Z,17.30
2022-12-01T20:44:24.380Z,17.05
2022-12-01T20:46:54.230Z,17.95
2022-12-01T20:49:24.008Z,17.55
2022-12-01T20:51:53.624Z,16.27
2022-12-01T20:54:28.305Z,16.92
2022-12-01T20:57:01.767Z,16.80
2022-12-01T20:59:31.931Z,16.83
2022-12-01T21:02:01.539Z,17.35
2022-12-01T21:04:31.124Z,15.95
2022-12-01T21:07:01.096Z,15.57
2022-12-01T21:09:30.779Z,16.13
2022-12-01T21:12:18.198Z,17.30
2022-12-01T21:14:51.405Z,16.55
2022-12-01T21:17:27.969Z,18.63
2022-12-01T21:20:01.625Z,16.40
2022-12-01T21:22:31.335Z,16.25
2022-12-01T21:25:05.460Z,17.55
2022-12-01T21:27:37.603Z,17.85
2022-12-01T21:30:16.089Z,18.65
2022-12-01T21:32:46.077Z,19.73
2022-12-01T21:35:21.322Z,16.80
2022-12-01T21:37:51.958Z,19.75
2022-12-01T21:40:23.711Z,18.58
2022-12-01T21:42:56.091Z,17.05
2022-12-01T21:45:28.706Z,18.65
2022-12-01T21:48:02.516Z,16.10
2022-12-01T21:50:32.864Z,18.33
2022-12-01T21:53:02.479Z,19.27
2022-12-01T21:55:42.126Z,17.52
2022-12-01T21:58:39.227Z,18.27
2022-12-01T22:01:19.877Z,19.30
2022-12-01T22:03:49.597Z,18.23
2022-12-01T22:06:30.072Z,18.70
2022-12-01T22:09:02.907Z,18.63
2022-12-01T22:11:33.317Z,19.45
2022-12-01T22:14:14.414Z,19.30
2022-12-01T22:16:46.235Z,17.67
2022-12-01T22:19:27.936Z,19.45
2022-12-01T22:22:02.818Z,18.40
2022-12-01T22:24:36.095Z,18.42
2022-12-01T22:27:17.150Z,19.47
2022-12-01T22:29:50.142Z,18.70
2022-12-01T22:32:35.716Z,20.00
2022-12-01T22:35:32.909Z,20.67
2022-12-01T22:38:14.729Z,20.10
2022-12-01T22:40:47.660Z,21.40
2022-12-01T22:43:25.621Z,22.23
2022-12-01T22:46:04.493Z,20.35
2022-12-01T22:48:38.408Z,21.35
2022-12-01T22:51:26.757Z,21.65
2022-12-01T22:54:00.467Z,20.60
2022-12-01T22:56:33.160Z,19.63
2022-12-01T22:59:02.798Z,19.05
2022-12-01T23:01:36.760Z,17.85
2022-12-01T23:04:18.030Z,21.17
2022-12-01T23:06:56.948Z,21.65
2022-12-01T23:09:30.356Z,21.30
2022-12-01T23:12:03.335Z,20.85
2022-12-01T23:14:32.907Z,18.85
2022-12-01T23:17:09.406Z,18.10
2022-12-01T23:19:38.987Z,21.05
2022-12-01T23:22:08.559Z,20.35
2022-12-01T23:24:38.125Z,20.15
2022-12-01T23:27:08.676Z,20.17
2022-12-01T23:29:38.432Z,21.98
2022-12-01T23:32:10.642Z,15.45
2022-12-01T23:34:40.476Z,17.88
2022-12-01T23:37:24.272Z,17.95
2022-12-01T23:39:53.926Z,16.95
2022-12-01T23:42:23.509Z,17.33
2022-12-01T23:44:53.366Z,18.25
2022-12-01T23:47:28.211Z,18.48
2022-12-01T23:50:01.741Z,19.20
2022-12-01T23:52:34.417Z,18.73
2022-12-01T23:55:04.349Z,20.23
2022-12-01T23:57:34.144Z,16.77
